Time;durP1;ratioP1;P1;durP2;ratioP2;P2;SDS_P1;SDS_P2;PMS_P1;PMS_P2;Temp;Humidity;BMP_temperature;BMP_pressure;BME280_temperature;BME280_humidity;BME280_pressure;Samples;Min_cycle;Max_cycle;Signal;HPM_P1;HPM_P2
2023/04/01 00:00:55;;;;;;;26.20;20.90;;;;;;;;;;5091189;28;20183;-83
2023/04/01 00:03:21;;;;;;;25.93;21.03;;;;;;;;;;5111605;28;20182;-85
2023/04/01 00:05:48;;;;;;;29.23;21.10;;;;;;;;;;5093159;28;20245;-84
2023/04/01 00:08:14;;;;;;;27.87;22.60;;;;;;;;;;5092187;28;20190;-85
2023/04/01 00:10:40;;;;;;;26.83;21.40;;;;;;;;;;5114045;28;20172;-85
2023/04/01 00:13:06;;;;;;;24.87;20.30;;;;;;;;;;5109628;28;20190;-84
2023/04/01 00:15:32;;;;;;;24.07;20.13;;;;;;;;;;5106524;28;20179;-85
2023/04/01 00:17:58;;;;;;;26.20;21.40;;;;;;;;;;5092151;28;20180;-84
2023/04/01 00:20:25;;;;;;;23.57;19.73;;;;;;;;;;5091042;28;20215;-85
2023/04/01 00:22:51;;;;;;;25.40;20.73;;;;;;;;;;5093613;28;20236;-85
2023/04/01 00:25:17;;;;;;;27.13;20.23;;;;;;;;;;5095596;28;20189;-85
2023/04/01 00:27:43;;;;;;;25.20;22.00;;;;;;;;;;5091006;28;20184;-85
2023/04/01 00:30:09;;;;;;;27.90;22.63;;;;;;;;;;5109298;28;20215;-85
2023/04/01 00:32:36;;;;;;;27.53;23.70;;;;;;;;;;5109874;28;20243;-83
2023/04/01 00:35:02;;;;;;;28.23;23.40;;;;;;;;;;5092524;28;21128;-85
2023/04/01 00:37:28;;;;;;;29.03;23.90;;;;;;;;;;5076164;28;20176;-84
2023/04/01 00:39:54;;;;;;;28.27;23.13;;;;;;;;;;5090656;28;20655;-84
2023/04/01 00:42:20;;;;;;;32.23;24.27;;;;;;;;;;5093646;28;20236;-84
2023/04/01 00:44:54;;;;;;;28.20;24.53;;;;;;;;;;5093346;28;20215;-85
2023/04/01 00:47:20;;;;;;;28.40;24.03;;;;;;;;;;5108062;28;20185;-84
2023/04/01 00:49:47;;;;;;;24.80;20.77;;;;;;;;;;5089429;28;20640;-83
2023/04/01 00:52:14;;;;;;;24.93;22.10;;;;;;;;;;5110597;28;20217;-85
2023/04/01 00:54:42;;;;;;;31.10;22.83;;;;;;;;;;5092420;28;20230;-84
2023/04/01 00:57:14;;;;;;;27.60;22.97;;;;;;;;;;5110902;28;20207;-84
2023/04/01 00:59:42;;;;;;;27.03;24.07;;;;;;;;;;5091118;28;20672;-85
2023/04/01 01:02:10;;;;;;;28.67;24.63;;;;;;;;;;5112020;28;20183;-84
2023/04/01 01:04:36;;;;;;;37.97;27.17;;;;;;;;;;5090182;28;20601;-84
2023/04/01 01:07:05;;;;;;;34.53;25.10;;;;;;;;;;5090461;28;20301;-82
2023/04/01 01:09:47;;;;;;;34.37;26.80;;;;;;;;;;5093095;28;20211;-82
2023/04/01 01:12:12;;;;;;;37.93;27.30;;;;;;;;;;5092972;28;20179;-84
2023/04/01 01:14:57;;;;;;;33.73;25.67;;;;;;;;;;5087694;28;20180;-83
2023/04/01 01:17:42;;;;;;;43.70;29.27;;;;;;;;;;5095207;28;20268;-83
2023/04/01 01:20:24;;;;;;;31.37;25.70;;;;;;;;;;5091644;28;20194;-82
2023/04/01 01:23:09;;;;;;;34.67;25.33;;;;;;;;;;5090115;28;20178;-84
2023/04/01 01:25:41;;;;;;;34.37;26.33;;;;;;;;;;5074178;28;20212;-84
2023/04/01 01:28:12;;;;;;;35.50;27.07;;;;;;;;;;5088484;28;20187;-82
2023/04/01 01:30:57;;;;;;;38.07;27.37;;;;;;;;;;5086288;28;20192;-83
2023/04/01 01:33:33;;;;;;;36.03;27.13;;;;;;;;;;5101388;28;20274;-83
2023/04/01 01:36:00;;;;;;;32.13;26.33;;;;;;;;;;5103198;28;20180;-82
2023/04/01 01:38:28;;;;;;;41.20;30.30;;;;;;;;;;5102538;28;20176;-82
2023/04/01 01:40:57;;;;;;;34.20;29.23;;;;;;;;;;5102233;28;20192;-84
2023/04/01 01:43:25;;;;;;;35.40;28.67;;;;;;;;;;5112627;28;20179;-83
2023/04/01 01:45:54;;;;;;;33.03;27.73;;;;;;;;;;5090708;28;20187;-84
2023/04/01 01:48:20;;;;;;;39.03;29.40;;;;;;;;;;5091571;28;20176;-84
2023/04/01 01:50:48;;;;;;;37.10;30.63;;;;;;;;;;5108614;28;20179;-82
2023/04/01 01:53:14;;;;;;;39.23;29.80;;;;;;;;;;5110167;28;20323;-83
2023/04/01 01:55:41;;;;;;;38.97;29.13;;;;;;;;;;5091159;28;20172;-82
2023/04/01 01:58:29;;;;;;;37.43;30.00;;;;;;;;;;5083216;28;20172;-82
2023/04/01 02:00:56;;;;;;;33.57;28.67;;;;;;;;;;5095118;28;20195;-83
2023/04/01 02:03:23;;;;;;;33.43;28.63;;;;;;;;;;5094132;28;20175;-82
2023/04/01 02:05:51;;;;;;;33.60;28.83;;;;;;;;;;5097330;28;20186;-83
2023/04/01 02:08:20;;;;;;;34.33;28.50;;;;;;;;;;5096842;28;20529;-85
2023/04/01 02:10:53;;;;;;;41.57;30.90;;;;;;;;;;5095788;28;20206;-82
2023/04/01 02:13:26;;;;;;;36.17;28.27;;;;;;;;;;5096160;28;20263;-82
2023/04/01 02:15:55;;;;;;;35.80;29.37;;;;;;;;;;5089680;28;20184;-84
2023/04/01 02:18:21;;;;;;;34.67;28.27;;;;;;;;;;5096821;28;20184;-84
2023/04/01 02:20:48;;;;;;;40.47;29.87;;;;;;;;;;5096924;28;20641;-83
2023/04/01 02:23:14;;;;;;;34.17;29.27;;;;;;;;;;5112620;28;20213;-84
2023/04/01 02:25:42;;;;;;;38.23;30.83;;;;;;;;;;5096348;28;20263;-82
2023/04/01 02:28:08;;;;;;;36.00;29.63;;;;;;;;;;5095186;28;20645;-82
2023/04/01 02:30:35;;;;;;;33.27;28.27;;;;;;;;;;5096031;28;20208;-83
2023/04/01 02:33:02;;;;;;;34.87;28.03;;;;;;;;;;5111309;28;20180;-85
2023/04/01 02:35:28;;;;;;;35.57;27.97;;;;;;;;;;5094028;28;20189;-82
2023/04/01 02:37:55;;;;;;;30.33;27.00;;;;;;;;;;5096946;28;20176;-82
2023/04/01 02:40:21;;;;;;;34.20;29.37;;;;;;;;;;5086676;28;20184;-83
2023/04/01 02:42:47;;;;;;;36.40;27.83;;;;;;;;;;5113692;28;20185;-85
2023/04/01 02:45:14;;;;;;;38.47;30.67;;;;;;;;;;5096149;28;20619;-84
2023/04/01 02:47:40;;;;;;;36.87;30.10;;;;;;;;;;5095216;28;20199;-84
2023/04/01 02:50:06;;;;;;;41.17;30.47;;;;;;;;;;5113521;28;20864;-82
2023/04/01 02:52:33;;;;;;;40.10;31.17;;;;;;;;;;5091667;28;20184;-82
2023/04/01 02:54:59;;;;;;;43.07;31.90;;;;;;;;;;5092324;28;20179;-82
2023/04/01 02:57:25;;;;;;;37.23;29.27;;;;;;;;;;5095718;28;20178;-83
2023/04/01 02:59:51;;;;;;;38.37;30.80;;;;;;;;;;5094556;28;20179;-83
2023/04/01 03:02:17;;;;;;;38.00;28.97;;;;;;;;;;5093019;28;20184;-84
2023/04/01 03:04:43;;;;;;;39.57;31.50;;;;;;;;;;5096275;28;20205;-83
2023/04/01 03:07:10;;;;;;;34.43;28.00;;;;;;;;;;5112212;28;20184;-82
2023/04/01 03:09:36;;;;;;;37.37;28.20;;;;;;;;;;5095085;28;20298;-82
2023/04/01 03:12:02;;;;;;;38.10;29.37;;;;;;;;;;5112741;28;20179;-84
2023/04/01 03:14:28;;;;;;;34.90;27.97;;;;;;;;;;5111563;28;20191;-83
2023/04/01 03:16:55;;;;;;;38.13;30.20;;;;;;;;;;5092230;28;20256;-83
2023/04/01 03:19:21;;;;;;;34.13;29.00;;;;;;;;;;5094550;28;20661;-84
2023/04/01 03:21:47;;;;;;;37.80;30.57;;;;;;;;;;5094227;28;20184;-84
2023/04/01 03:24:13;;;;;;;39.07;29.70;;;;;;;;;;5095275;28;20285;-85
2023/04/01 03:26:39;;;;;;;35.00;29.53;;;;;;;;;;5111542;28;20191;-84
2023/04/01 03:29:05;;;;;;;36.33;28.80;;;;;;;;;;5112650;28;20560;-85
2023/04/01 03:31:31;;;;;;;34.37;29.87;;;;;;;;;;5081040;28;20264;-85
2023/04/01 03:33:57;;;;;;;36.73;28.93;;;;;;;;;;5091903;28;20194;-83
2023/04/01 03:36:35;;;;;;;32.83;26.77;;;;;;;;;;5095558;28;20921;-83
2023/04/01 03:39:01;;;;;;;34.53;28.63;;;;;;;;;;5092533;28;20184;-85
2023/04/01 03:41:27;;;;;;;33.33;27.77;;;;;;;;;;5111829;28;20615;-83
2023/04/01 03:43:54;;;;;;;35.80;28.73;;;;;;;;;;5092836;28;20184;-82
2023/04/01 03:46:23;;;;;;;34.40;28.37;;;;;;;;;;5094102;28;20274;-82
2023/04/01 03:48:49;;;;;;;30.17;26.57;;;;;;;;;;5094342;28;20208;-83
2023/04/01 03:51:15;;;;;;;32.20;26.97;;;;;;;;;;5110863;28;20213;-83
2023/04/01 03:53:41;;;;;;;31.13;26.93;;;;;;;;;;5092982;28;20189;-83
2023/04/01 03:56:07;;;;;;;28.83;25.43;;;;;;;;;;5094291;28;20625;-83
2023/04/01 03:58:33;;;;;;;34.87;26.87;;;;;;;;;;5081140;28;20325;-83
2023/04/01 04:00:59;;;;;;;33.17;26.63;;;;;;;;;;5088419;28;20684;-83
2023/04/01 04:03:26;;;;;;;32.20;24.67;;;;;;;;;;5094440;28;20664;-83
2023/04/01 04:05:52;;;;;;;27.30;24.37;;;;;;;;;;5094489;28;20660;-85
2023/04/01 04:08:18;;;;;;;30.07;24.73;;;;;;;;;;5093678;28;20183;-82
2023/04/01 04:10:46;;;;;;;30.40;25.43;;;;;;;;;;5090982;28;20172;-84
2023/04/01 04:13:12;;;;;;;31.00;24.73;;;;;;;;;;5093582;28;20184;-84
2023/04/01 04:15:39;;;;;;;29.77;23.83;;;;;;;;;;5089543;28;20183;-84
2023/04/01 04:18:05;;;;;;;25.83;22.33;;;;;;;;;;5094983;28;20191;-82
2023/04/01 04:20:31;;;;;;;24.10;21.57;;;;;;;;;;5094335;28;20204;-82
2023/04/01 04:22:57;;;;;;;23.23;20.73;;;;;;;;;;5112497;28;20256;-84
2023/04/01 04:25:23;;;;;;;24.20;21.50;;;;;;;;;;5109402;28;20184;-85
2023/04/01 04:27:49;;;;;;;26.67;22.03;;;;;;;;;;5091276;28;20184;-83
2023/04/01 04:30:15;;;;;;;21.97;19.73;;;;;;;;;;5083017;28;20199;-84
2023/04/01 04:32:41;;;;;;;23.60;19.60;;;;;;;;;;5092932;28;20190;-82
2023/04/01 04:35:08;;;;;;;22.23;19.37;;;;;;;;;;5081791;28;20160;-84
2023/04/01 04:37:34;;;;;;;24.17;18.10;;;;;;;;;;5111699;28;20168;-84
2023/04/01 04:40:00;;;;;;;22.73;18.50;;;;;;;;;;5096025;28;20555;-82
2023/04/01 04:42:44;;;;;;;21.23;18.43;;;;;;;;;;5093128;28;20309;-84
2023/04/01 04:45:12;;;;;;;21.00;17.97;;;;;;;;;;5107235;28;20183;-82
2023/04/01 04:47:38;;;;;;;19.37;17.30;;;;;;;;;;5093080;28;20192;-83
2023/04/01 04:50:04;;;;;;;21.40;18.17;;;;;;;;;;5094713;28;20203;-83
2023/04/01 04:52:30;;;;;;;20.90;17.47;;;;;;;;;;5093344;28;20184;-82
2023/04/01 04:54:56;;;;;;;18.63;16.63;;;;;;;;;;5109075;28;20179;-82
2023/04/01 04:57:22;;;;;;;21.73;15.90;;;;;;;;;;5092057;28;20184;-84
2023/04/01 04:59:48;;;;;;;18.60;16.50;;;;;;;;;;5093875;28;20592;-84
2023/04/01 05:02:14;;;;;;;18.43;16.53;;;;;;;;;;5091361;28;20267;-82
2023/04/01 05:04:40;;;;;;;18.17;16.27;;;;;;;;;;5090816;28;20167;-85
2023/04/01 05:07:06;;;;;;;18.70;16.67;;;;;;;;;;5092245;28;20184;-82
2023/04/01 05:09:33;;;;;;;18.83;16.80;;;;;;;;;;5092327;28;20230;-82
2023/04/01 05:11:59;;;;;;;17.80;15.90;;;;;;;;;;5117126;28;20195;-82
2023/04/01 05:14:25;;;;;;;18.07;16.27;;;;;;;;;;5099413;28;20172;-81
2023/04/01 05:16:51;;;;;;;18.40;16.50;;;;;;;;;;5095954;28;20195;-82
2023/04/01 05:19:17;;;;;;;17.27;15.43;;;;;;;;;;5115459;28;20191;-83
2023/04/01 05:21:43;;;;;;;17.33;15.43;;;;;;;;;;5113151;28;20241;-82
2023/04/01 05:24:09;;;;;;;18.33;14.23;;;;;;;;;;5093772;28;20216;-84
2023/04/01 05:26:36;;;;;;;15.77;14.17;;;;;;;;;;5091704;28;20185;-84
2023/04/01 05:29:03;;;;;;;18.47;15.70;;;;;;;;;;5107536;28;20819;-84
2023/04/01 05:31:29;;;;;;;17.63;14.63;;;;;;;;;;5090466;28;20184;-83
2023/04/01 05:33:55;;;;;;;16.70;15.00;;;;;;;;;;5108695;28;20180;-85
2023/04/01 05:36:21;;;;;;;18.87;16.17;;;;;;;;;;5095248;28;20207;-84
2023/04/01 05:38:47;;;;;;;18.20;16.07;;;;;;;;;;5096689;28;20195;-86
2023/04/01 05:41:14;;;;;;;21.40;16.97;;;;;;;;;;5081706;28;20259;-83
2023/04/01 05:43:40;;;;;;;19.67;17.37;;;;;;;;;;5098345;28;20168;-85
2023/04/01 05:46:06;;;;;;;20.90;16.93;;;;;;;;;;5094685;28;20592;-86
2023/04/01 05:48:34;;;;;;;20.73;18.60;;;;;;;;;;5097418;28;20208;-85
2023/04/01 05:51:00;;;;;;;21.63;18.67;;;;;;;;;;5097306;28;20230;-86
2023/04/01 05:53:26;;;;;;;21.03;18.37;;;;;;;;;;5092205;28;20214;-83
2023/04/01 05:55:52;;;;;;;22.27;18.80;;;;;;;;;;5096027;28;20172;-85
2023/04/01 05:58:18;;;;;;;22.67;20.30;;;;;;;;;;5108745;28;20202;-84
2023/04/01 06:00:44;;;;;;;26.97;22.00;;;;;;;;;;5095612;28;20217;-86
2023/04/01 06:03:10;;;;;;;23.63;20.93;;;;;;;;;;5092939;28;20734;-85
2023/04/01 06:05:39;;;;;;;27.03;23.63;;;;;;;;;;5093402;28;20182;-85
2023/04/01 06:08:11;;;;;;;26.50;23.73;;;;;;;;;;5096929;28;20312;-86
2023/04/01 06:10:44;;;;;;;28.80;25.77;;;;;;;;;;5111046;28;20211;-86
2023/04/01 06:13:19;;;;;;;26.87;24.07;;;;;;;;;;5096810;28;20331;-85
2023/04/01 06:15:48;;;;;;;28.60;25.50;;;;;;;;;;5096501;28;20376;-83
2023/04/01 06:18:20;;;;;;;29.20;26.10;;;;;;;;;;5096938;28;20539;-84
2023/04/01 06:21:00;;;;;;;30.40;27.10;;;;;;;;;;5097452;28;20179;-83
2023/04/01 06:23:38;;;;;;;31.13;27.50;;;;;;;;;;5079697;28;20208;-84
2023/04/01 06:26:22;;;;;;;33.33;27.70;;;;;;;;;;5097630;28;20175;-86
2023/04/01 06:29:01;;;;;;;30.67;27.37;;;;;;;;;;5111551;28;20195;-84
2023/04/01 06:31:39;;;;;;;30.70;27.50;;;;;;;;;;5094934;28;20226;-84
2023/04/01 06:37:08;;;;;;;31.63;28.33;;;;;;;;;;5103365;28;20183;-84
2023/04/01 06:40:03;;;;;;;31.53;27.57;;;;;;;;;;5083124;28;20188;-85
2023/04/01 06:42:49;;;;;;;32.97;29.53;;;;;;;;;;5096132;28;20642;-84
2023/04/01 06:45:48;;;;;;;33.53;29.83;;;;;;;;;;5095715;28;20190;-82
2023/04/01 06:48:17;;;;;;;32.97;29.50;;;;;;;;;;5055074;28;20189;-85
2023/04/01 06:51:01;;;;;;;37.40;29.53;;;;;;;;;;5071436;28;20216;-85
2023/04/01 06:53:27;;;;;;;31.87;28.10;;;;;;;;;;5051296;28;20189;-84
2023/04/01 06:55:58;;;;;;;37.40;31.00;;;;;;;;;;5071777;28;20314;-83
2023/04/01 06:58:27;;;;;;;34.63;30.87;;;;;;;;;;5044907;28;20563;-84
2023/04/01 07:00:55;;;;;;;33.57;30.13;;;;;;;;;;5046638;28;20242;-84
2023/04/01 07:03:30;;;;;;;34.87;29.67;;;;;;;;;;5053955;28;20185;-84
2023/04/01 07:06:03;;;;;;;33.80;30.27;;;;;;;;;;5054622;28;20189;-83
2023/04/01 07:08:30;;;;;;;34.97;31.20;;;;;;;;;;5053996;28;20184;-84
2023/04/01 07:10:59;;;;;;;35.10;31.50;;;;;;;;;;5054864;28;20191;-84
2023/04/01 07:13:26;;;;;;;33.40;30.00;;;;;;;;;;5053651;28;20184;-83
2023/04/01 07:15:58;;;;;;;33.87;30.17;;;;;;;;;;5053352;28;20177;-84
2023/04/01 07:18:29;;;;;;;35.00;31.30;;;;;;;;;;5053733;28;20197;-85
2023/04/01 07:20:55;;;;;;;37.27;33.20;;;;;;;;;;5052933;28;20272;-84
2023/04/01 07:23:24;;;;;;;36.70;32.87;;;;;;;;;;5057875;28;20228;-83
2023/04/01 07:25:55;;;;;;;35.50;32.00;;;;;;;;;;5093246;28;20180;-84
2023/04/01 07:28:22;;;;;;;36.37;32.60;;;;;;;;;;5091668;28;20180;-84
2023/04/01 07:30:48;;;;;;;37.77;32.73;;;;;;;;;;5091256;28;20208;-83
2023/04/01 07:33:17;;;;;;;36.60;31.30;;;;;;;;;;5090851;28;20668;-83
2023/04/01 07:35:49;;;;;;;30.87;27.73;;;;;;;;;;5088786;28;20188;-84
2023/04/01 07:38:21;;;;;;;34.73;31.17;;;;;;;;;;5072717;28;20184;-83
2023/04/01 07:40:56;;;;;;;37.67;33.77;;;;;;;;;;5088213;28;20189;-81
2023/04/01 07:43:26;;;;;;;35.83;31.63;;;;;;;;;;5092106;28;20188;-86
2023/04/01 07:45:54;;;;;;;37.87;33.77;;;;;;;;;;5092342;28;20179;-85
2023/04/01 07:48:33;;;;;;;38.10;34.00;;;;;;;;;;5092038;28;20176;-86
2023/04/01 07:51:13;;;;;;;38.20;34.20;;;;;;;;;;5076885;28;20192;-87
2023/04/01 07:54:05;;;;;;;35.70;31.90;;;;;;;;;;5091493;28;20180;-86
2023/04/01 07:56:42;;;;;;;40.83;36.00;;;;;;;;;;5107063;28;20275;-84
2023/04/01 07:59:09;;;;;;;36.80;32.80;;;;;;;;;;5094531;28;20187;-91
2023/04/01 08:01:50;;;;;;;38.37;34.37;;;;;;;;;;5090064;28;20180;-83
2023/04/01 08:04:19;;;;;;;39.13;33.97;;;;;;;;;;5086130;28;20187;-82
2023/04/01 08:06:59;;;;;;;35.10;31.33;;;;;;;;;;5080973;28;20195;-83
2023/04/01 08:09:25;;;;;;;39.43;35.23;;;;;;;;;;5089179;28;20690;-86
2023/04/01 08:12:03;;;;;;;37.17;33.17;;;;;;;;;;5072268;28;20185;-87
2023/04/01 08:14:39;;;;;;;37.30;33.27;;;;;;;;;;5089225;28;20507;-84
2023/04/01 08:17:09;;;;;;;36.97;33.00;;;;;;;;;;5089747;28;20176;-87
2023/04/01 08:19:38;;;;;;;36.90;31.90;;;;;;;;;;5093210;28;20188;-84
2023/04/01 08:22:08;;;;;;;34.87;30.53;;;;;;;;;;5091889;28;20176;-83
2023/04/01 08:24:45;;;;;;;34.97;26.90;;;;;;;;;;5071787;28;20225;-85
2023/04/01 08:27:34;;;;;;;34.90;29.13;;;;;;;;;;5066894;28;20212;-86
2023/04/01 08:30:04;;;;;;;32.00;28.27;;;;;;;;;;5073366;28;20254;-85
2023/04/01 08:32:42;;;;;;;28.53;24.87;;;;;;;;;;5087982;28;20203;-83
2023/04/01 08:35:12;;;;;;;28.27;25.27;;;;;;;;;;5086249;28;20172;-87
2023/04/01 08:37:41;;;;;;;29.53;24.67;;;;;;;;;;5068844;28;20207;-82
2023/04/01 08:40:25;;;;;;;27.70;23.80;;;;;;;;;;5070396;28;20185;-86
2023/04/01 08:42:51;;;;;;;26.10;23.30;;;;;;;;;;5061769;28;20186;-86
2023/04/01 08:45:27;;;;;;;21.90;19.60;;;;;;;;;;5054286;28;20181;-87
2023/04/01 08:47:56;;;;;;;22.13;19.77;;;;;;;;;;5068106;28;20198;-86
2023/04/01 08:53:35;;;;;;;24.57;21.10;;;;;;;;;;5053140;28;20698;-84
2023/04/01 08:56:04;;;;;;;24.63;21.97;;;;;;;;;;5059989;28;20182;-82
2023/04/01 08:58:33;;;;;;;25.23;22.63;;;;;;;;;;5075158;28;20212;-85
2023/04/01 09:01:11;;;;;;;28.00;24.07;;;;;;;;;;5079542;28;20269;-83
2023/04/01 09:03:56;;;;;;;25.30;22.87;;;;;;;;;;5076874;28;20181;-82
2023/04/01 09:06:29;;;;;;;27.10;24.20;;;;;;;;;;5091983;28;20220;-82
2023/04/01 09:09:15;;;;;;;23.70;20.93;;;;;;;;;;5072123;28;20288;-87
2023/04/01 09:12:00;;;;;;;18.17;16.37;;;;;;;;;;5091926;28;20172;-87
2023/04/01 09:14:26;;;;;;;18.93;15.67;;;;;;;;;;5083705;28;20218;-84
2023/04/01 09:17:11;;;;;;;16.60;14.90;;;;;;;;;;5070256;28;20190;-88
2023/04/01 09:19:43;;;;;;;14.07;12.67;;;;;;;;;;5057271;28;20247;-83
2023/04/01 09:22:12;;;;;;;12.57;10.37;;;;;;;;;;5063279;28;20264;-88
2023/04/01 09:24:38;;;;;;;10.03;8.37;;;;;;;;;;5092847;28;20587;-84
2023/04/01 09:27:14;;;;;;;9.80;8.80;;;;;;;;;;5071034;28;20185;-87
2023/04/01 09:29:59;;;;;;;11.53;9.10;;;;;;;;;;5070464;28;20200;-83
2023/04/01 09:32:25;;;;;;;6.80;6.20;;;;;;;;;;5074273;28;20203;-84
2023/04/01 09:35:11;;;;;;;5.83;5.27;;;;;;;;;;5055802;28;20181;-84
2023/04/01 09:37:49;;;;;;;6.60;5.17;;;;;;;;;;5064581;28;20189;-86
2023/04/01 09:40:19;;;;;;;8.33;5.13;;;;;;;;;;5071904;28;20177;-87
2023/04/01 09:42:45;;;;;;;6.97;4.90;;;;;;;;;;5070896;28;20185;-82
2023/04/01 09:45:21;;;;;;;6.00;5.37;;;;;;;;;;5071971;28;20178;-83
2023/04/01 09:48:10;;;;;;;6.87;6.17;;;;;;;;;;5074122;28;20181;-85
2023/04/01 09:50:45;;;;;;;8.83;6.10;;;;;;;;;;5071207;28;20675;-82
2023/04/01 09:53:18;;;;;;;6.67;6.03;;;;;;;;;;5072679;28;20181;-84
2023/04/01 09:55:47;;;;;;;6.40;5.60;;;;;;;;;;5071954;28;20204;-84
2023/04/01 09:58:27;;;;;;;5.80;5.20;;;;;;;;;;5071788;28;20712;-84
2023/04/01 10:01:02;;;;;;;6.77;4.57;;;;;;;;;;5071205;28;20193;-84
2023/04/01 10:03:46;;;;;;;4.57;4.17;;;;;;;;;;5070619;28;20207;-83
2023/04/01 10:06:31;;;;;;;4.73;4.33;;;;;;;;;;5064605;28;20323;-84
2023/04/01 10:09:16;;;;;;;5.40;4.93;;;;;;;;;;5072194;28;20204;-84
2023/04/01 10:11:50;;;;;;;5.57;5.07;;;;;;;;;;5070727;28;20201;-84
2023/04/01 10:14:27;;;;;;;5.10;4.70;;;;;;;;;;5060083;28;20268;-84
2023/04/01 10:17:04;;;;;;;6.93;5.17;;;;;;;;;;5069337;28;20263;-84
2023/04/01 10:19:53;;;;;;;5.70;5.20;;;;;;;;;;5071762;28;20188;-83
2023/04/01 10:22:35;;;;;;;5.70;5.20;;;;;;;;;;5064486;28;20193;-83
2023/04/01 10:25:11;;;;;;;6.30;5.70;;;;;;;;;;5072358;28;20327;-84
2023/04/01 10:27:50;;;;;;;6.33;5.70;;;;;;;;;;5072043;28;20180;-84
2023/04/01 10:30:27;;;;;;;5.77;5.27;;;;;;;;;;5057842;28;20204;-84
2023/04/01 10:32:55;;;;;;;6.10;5.27;;;;;;;;;;5055475;28;20239;-83
2023/04/01 10:35:49;;;;;;;6.77;6.17;;;;;;;;;;5073506;28;20172;-84
2023/04/01 10:38:34;;;;;;;6.07;5.47;;;;;;;;;;5070607;28;20188;-84
2023/04/01 10:41:30;;;;;;;7.43;6.73;;;;;;;;;;5070194;28;20208;-84
2023/04/01 10:43:59;;;;;;;6.97;6.37;;;;;;;;;;5062717;28;20193;-83
2023/04/01 10:46:43;;;;;;;6.70;6.10;;;;;;;;;;5069304;28;20193;-84
2023/04/01 10:49:15;;;;;;;6.37;5.77;;;;;;;;;;5070590;28;20291;-84
2023/04/01 10:51:41;;;;;;;6.87;5.43;;;;;;;;;;5070240;28;20204;-84
2023/04/01 10:54:23;;;;;;;7.17;6.50;;;;;;;;;;5066579;28;20205;-84
2023/04/01 10:56:52;;;;;;;8.67;7.87;;;;;;;;;;5078706;28;20174;-85
2023/04/01 10:59:18;;;;;;;8.83;8.03;;;;;;;;;;5065404;28;20197;-83
2023/04/01 11:01:52;;;;;;;11.23;10.13;;;;;;;;;;5059823;28;20204;-85
2023/04/01 11:04:37;;;;;;;11.17;10.17;;;;;;;;;;5062857;28;20181;-84
2023/04/01 11:07:03;;;;;;;13.97;12.57;;;;;;;;;;5063690;28;20205;-83
2023/04/01 11:09:32;;;;;;;14.40;12.90;;;;;;;;;;5059679;28;20286;-84
2023/04/01 11:12:11;;;;;;;14.03;12.57;;;;;;;;;;5060952;28;20184;-84
2023/04/01 11:14:56;;;;;;;14.20;11.80;;;;;;;;;;5077185;28;20399;-83
2023/04/01 11:17:45;;;;;;;14.00;12.67;;;;;;;;;;5064311;28;20563;-83
2023/04/01 11:20:26;;;;;;;15.47;13.97;;;;;;;;;;5055902;28;20264;-83
2023/04/01 11:22:58;;;;;;;16.10;14.50;;;;;;;;;;5070417;28;20177;-84
2023/04/01 11:25:27;;;;;;;16.03;14.33;;;;;;;;;;5094417;28;20186;-84
2023/04/01 11:27:53;;;;;;;13.90;12.47;;;;;;;;;;5110573;28;20183;-84
2023/04/01 11:30:38;;;;;;;13.20;11.87;;;;;;;;;;5109866;28;20204;-84
2023/04/01 11:33:15;;;;;;;12.30;11.13;;;;;;;;;;5092078;28;20193;-84
2023/04/01 11:36:00;;;;;;;12.33;11.13;;;;;;;;;;5091938;28;20175;-84
2023/04/01 11:38:44;;;;;;;13.50;12.13;;;;;;;;;;5091264;28;20182;-84
2023/04/01 11:41:25;;;;;;;12.83;11.53;;;;;;;;;;5090169;28;20699;-83
2023/04/01 11:44:09;;;;;;;19.10;17.03;;;;;;;;;;5109049;28;20183;-83
2023/04/01 11:46:54;;;;;;;19.23;15.17;;;;;;;;;;5094568;28;20175;-82
2023/04/01 11:49:23;;;;;;;15.57;13.83;;;;;;;;;;5092029;28;20206;-83
2023/04/01 11:51:55;;;;;;;8.90;8.03;;;;;;;;;;5093298;28;20192;-82
2023/04/01 11:54:28;;;;;;;11.23;10.07;;;;;;;;;;5086044;28;20188;-83
2023/04/01 11:57:06;;;;;;;10.97;9.93;;;;;;;;;;5082984;28;20204;-82
2023/04/01 12:00:10;;;;;;;8.23;7.43;;;;;;;;;;5089275;28;20175;-83
2023/04/01 12:02:48;;;;;;;7.63;6.87;;;;;;;;;;5061520;28;20663;-83
2023/04/01 12:05:25;;;;;;;7.70;6.90;;;;;;;;;;5051497;28;20628;-83
2023/04/01 12:07:52;;;;;;;7.00;6.40;;;;;;;;;;5061427;28;20188;-84
2023/04/01 12:10:18;;;;;;;6.90;6.20;;;;;;;;;;5070048;28;20354;-85
2023/04/01 12:13:03;;;;;;;7.40;6.73;;;;;;;;;;5068729;28;20193;-84
2023/04/01 12:15:52;;;;;;;8.93;8.03;;;;;;;;;;5055436;28;20689;-85
2023/04/01 12:18:30;;;;;;;7.97;7.20;;;;;;;;;;5033281;28;20201;-86
2023/04/01 12:21:14;;;;;;;8.17;7.37;;;;;;;;;;5051144;28;20176;-84
2023/04/01 12:23:47;;;;;;;7.87;7.17;;;;;;;;;;5051023;28;20216;-87
2023/04/01 12:26:32;;;;;;;8.10;7.40;;;;;;;;;;5052899;28;20402;-86
2023/04/01 12:28:59;;;;;;;10.70;8.77;;;;;;;;;;5036160;28;20748;-86
2023/04/01 12:31:46;;;;;;;7.60;6.90;;;;;;;;;;5063295;28;20192;-85
2023/04/01 12:34:27;;;;;;;7.90;7.10;;;;;;;;;;5060041;28;20185;-87
2023/04/01 12:37:02;;;;;;;8.43;7.63;;;;;;;;;;5088423;28;20292;-86
2023/04/01 12:39:31;;;;;;;9.63;8.73;;;;;;;;;;5106862;28;20211;-87
2023/04/01 12:42:00;;;;;;;9.10;8.20;;;;;;;;;;5109665;28;20183;-87
2023/04/01 12:44:41;;;;;;;9.20;8.13;;;;;;;;;;5107073;28;20216;-88
2023/04/01 12:47:20;;;;;;;9.40;8.37;;;;;;;;;;5091208;28;20275;-89
2023/04/01 12:49:49;;;;;;;9.87;8.97;;;;;;;;;;5090981;28;20273;-89
2023/04/01 12:52:34;;;;;;;10.87;9.97;;;;;;;;;;5091944;28;20187;-88
2023/04/01 12:55:18;;;;;;;11.07;10.07;;;;;;;;;;5095462;28;20207;-89
2023/04/01 12:57:56;;;;;;;10.37;9.37;;;;;;;;;;5093629;28;20167;-90
2023/04/01 13:00:22;;;;;;;9.00;8.20;;;;;;;;;;5075618;28;20216;-89
2023/04/01 13:02:58;;;;;;;9.87;8.93;;;;;;;;;;5091384;28;20171;-87
2023/04/01 13:05:42;;;;;;;10.23;8.53;;;;;;;;;;5076099;28;20539;-89
2023/04/01 13:08:23;;;;;;;9.87;8.97;;;;;;;;;;5083782;28;20220;-88
2023/04/01 13:10:58;;;;;;;9.37;8.50;;;;;;;;;;5108941;28;20293;-89
2023/04/01 13:13:24;;;;;;;14.57;13.07;;;;;;;;;;5093939;28;20187;-87
2023/04/01 13:15:55;;;;;;;12.47;11.23;;;;;;;;;;5088940;28;20592;-87
2023/04/01 13:18:21;;;;;;;12.23;10.97;;;;;;;;;;5094304;28;20186;-87
2023/04/01 13:21:06;;;;;;;12.53;11.33;;;;;;;;;;5080633;28;20279;-86
2023/04/01 13:23:41;;;;;;;10.37;9.33;;;;;;;;;;5090863;28;20216;-86
2023/04/01 13:26:18;;;;;;;11.83;10.73;;;;;;;;;;5108533;28;20184;-87
2023/04/01 13:29:04;;;;;;;12.10;10.90;;;;;;;;;;5104215;28;20198;-87
2023/04/01 13:31:47;;;;;;;9.93;9.03;;;;;;;;;;5082103;28;20556;-86
2023/04/01 13:34:14;;;;;;;9.30;8.43;;;;;;;;;;5092111;28;20192;-86
2023/04/01 13:36:43;;;;;;;8.47;7.77;;;;;;;;;;5091658;28;20524;-87
2023/04/01 13:39:25;;;;;;;7.73;6.47;;;;;;;;;;5092998;28;20184;-86
2023/04/01 13:42:11;;;;;;;11.83;7.07;;;;;;;;;;5092326;28;20684;-86
2023/04/01 13:44:40;;;;;;;8.27;6.70;;;;;;;;;;5089437;28;20179;-87
2023/04/01 13:47:25;;;;;;;6.30;5.70;;;;;;;;;;5089195;28;20262;-86
2023/04/01 13:49:51;;;;;;;9.77;7.00;;;;;;;;;;5090858;28;20208;-86
2023/04/01 13:52:35;;;;;;;6.10;5.23;;;;;;;;;;5089848;28;20191;-86
2023/04/01 13:55:22;;;;;;;4.40;4.00;;;;;;;;;;5089928;28;20649;-86
2023/04/01 13:58:06;;;;;;;4.73;4.07;;;;;;;;;;5093184;28;20917;-86
2023/04/01 14:00:51;;;;;;;4.87;4.30;;;;;;;;;;5077060;28;20176;-86
2023/04/01 14:03:20;;;;;;;5.27;3.70;;;;;;;;;;5093015;28;20226;-86
2023/04/01 14:06:05;;;;;;;4.63;3.70;;;;;;;;;;5096427;28;20199;-87
2023/04/01 14:08:52;;;;;;;5.07;4.10;;;;;;;;;;5094209;28;20312;-85
2023/04/01 14:11:22;;;;;;;4.63;4.07;;;;;;;;;;5094400;28;20568;-84
2023/04/01 14:14:08;;;;;;;5.03;4.53;;;;;;;;;;5114939;28;20215;-86
2023/04/01 14:16:55;;;;;;;8.13;5.13;;;;;;;;;;5112801;28;20187;-85
2023/04/01 14:19:33;;;;;;;6.33;5.17;;;;;;;;;;5015419;28;20707;-86
2023/04/01 14:22:04;;;;;;;10.30;6.03;;;;;;;;;;5031060;28;20652;-85
2023/04/01 14:24:42;;;;;;;6.93;6.23;;;;;;;;;;5016044;28;20226;-87
2023/04/01 14:27:17;;;;;;;8.07;5.93;;;;;;;;;;5013427;28;20265;-88
2023/04/01 14:29:51;;;;;;;8.63;5.93;;;;;;;;;;5016220;28;20220;-84
2023/04/01 14:32:27;;;;;;;8.90;6.60;;;;;;;;;;5032558;28;20234;-86
2023/04/01 14:35:12;;;;;;;5.70;5.20;;;;;;;;;;5031513;28;20186;-85
2023/04/01 14:37:41;;;;;;;5.77;5.17;;;;;;;;;;5015338;28;20740;-86
2023/04/01 14:40:13;;;;;;;6.57;5.83;;;;;;;;;;5031030;28;20273;-86
2023/04/01 14:42:46;;;;;;;7.53;5.70;;;;;;;;;;5028472;28;20195;-88
2023/04/01 14:45:21;;;;;;;7.23;6.20;;;;;;;;;;5032280;28;20257;-86
2023/04/01 14:47:49;;;;;;;6.97;6.27;;;;;;;;;;5009908;28;20205;-85
2023/04/01 14:50:17;;;;;;;6.17;5.57;;;;;;;;;;5030885;28;20221;-86
2023/04/01 14:52:55;;;;;;;7.20;5.47;;;;;;;;;;5031047;28;20201;-85
2023/04/01 14:55:27;;;;;;;5.50;5.00;;;;;;;;;;5033386;28;20560;-86
2023/04/01 14:58:05;;;;;;;5.20;4.70;;;;;;;;;;5090174;28;20639;-87
2023/04/01 15:00:42;;;;;;;5.23;4.73;;;;;;;;;;5085760;28;20279;-87